sensor_id;sensor_type;location;lat;lon;timestamp;P1;durP1;ratioP1;P2;durP2;ratioP2
74233;SDS011;62591;55.764;37.718;2023-12-22T00:02:08;11.15;;;5.28;;
74233;SDS011;62591;55.764;37.718;2023-12-22T00:04:38;11.13;;;5.50;;
74233;SDS011;62591;55.764;37.718;2023-12-22T00:07:12;9.35;;;5.28;;
74233;SDS011;62591;55.764;37.718;2023-12-22T00:09:42;11.35;;;5.90;;
74233;SDS011;62591;55.764;37.718;2023-12-22T00:12:14;12.25;;;5.93;;
74233;SDS011;62591;55.764;37.718;2023-12-22T00:14:45;11.27;;;5.90;;
74233;SDS011;62591;55.764;37.718;2023-12-22T00:17:14;11.38;;;5.22;;
74233;SDS011;62591;55.764;37.718;2023-12-22T00:19:43;11.68;;;5.38;;
74233;SDS011;62591;55.764;37.718;2023-12-22T00:22:12;8.07;;;5.10;;
74233;SDS011;62591;55.764;37.718;2023-12-22T00:24:42;10.82;;;5.28;;
74233;SDS011;62591;55.764;37.718;2023-12-22T00:27:14;9.35;;;5.22;;
74233;SDS011;62591;55.764;37.718;2023-12-22T00:29:46;8.93;;;5.10;;
74233;SDS011;62591;55.764;37.718;2023-12-22T00:32:20;9.27;;;5.22;;
74233;SDS011;62591;55.764;37.718;2023-12-22T00:34:50;9.60;;;4.93;;
74233;SDS011;62591;55.764;37.718;2023-12-22T00:37:20;9.50;;;4.80;;
74233;SDS011;62591;55.764;37.718;2023-12-22T00:39:49;9.13;;;4.80;;
74233;SDS011;62591;55.764;37.718;2023-12-22T00:42:24;8.70;;;5.20;;
74233;SDS011;62591;55.764;37.718;2023-12-22T00:45:00;8.75;;;5.10;;
74233;SDS011;62591;55.764;37.718;2023-12-22T00:47:32;9.30;;;5.05;;
74233;SDS011;62591;55.764;37.718;2023-12-22T00:50:05;11.35;;;5.50;;
74233;SDS011;62591;55.764;37.718;2023-12-22T00:52:39;8.68;;;4.68;;
74233;SDS011;62591;55.764;37.718;2023-12-22T00:55:09;11.02;;;4.38;;
74233;SDS011;62591;55.764;37.718;2023-12-22T00:57:40;8.10;;;4.90;;
74233;SDS011;62591;55.764;37.718;2023-12-22T01:00:18;8.63;;;4.53;;
74233;SDS011;62591;55.764;37.718;2023-12-22T01:02:51;9.95;;;5.00;;
74233;SDS011;62591;55.764;37.718;2023-12-22T01:05:20;7.13;;;4.22;;
74233;SDS011;62591;55.764;37.718;2023-12-22T01:07:54;8.50;;;4.32;;
74233;SDS011;62591;55.764;37.718;2023-12-22T01:10:25;8.77;;;4.55;;
74233;SDS011;62591;55.764;37.718;2023-12-22T01:12:55;10.65;;;4.70;;
74233;SDS011;62591;55.764;37.718;2023-12-22T01:15:29;10.82;;;5.35;;
74233;SDS011;62591;55.764;37.718;2023-12-22T01:18:01;8.07;;;4.55;;
74233;SDS011;62591;55.764;37.718;2023-12-22T01:20:33;11.15;;;4.28;;
74233;SDS011;62591;55.764;37.718;2023-12-22T01:23:05;8.88;;;4.85;;
74233;SDS011;62591;55.764;37.718;2023-12-22T01:25:34;7.97;;;3.88;;
74233;SDS011;62591;55.764;37.718;2023-12-22T01:28:03;9.20;;;4.53;;
74233;SDS011;62591;55.764;37.718;2023-12-22T01:30:35;9.05;;;4.80;;
74233;SDS011;62591;55.764;37.718;2023-12-22T01:33:06;9.05;;;4.88;;
74233;SDS011;62591;55.764;37.718;2023-12-22T01:35:39;9.80;;;5.05;;
74233;SDS011;62591;55.764;37.718;2023-12-22T01:38:09;9.48;;;4.82;;
74233;SDS011;62591;55.764;37.718;2023-12-22T01:40:42;9.75;;;4.78;;
74233;SDS011;62591;55.764;37.718;2023-12-22T01:43:15;8.73;;;5.07;;
74233;SDS011;62591;55.764;37.718;2023-12-22T01:45:52;9.18;;;4.63;;
74233;SDS011;62591;55.764;37.718;2023-12-22T01:48:26;10.35;;;5.32;;
74233;SDS011;62591;55.764;37.718;2023-12-22T01:51:00;9.05;;;4.50;;
74233;SDS011;62591;55.764;37.718;2023-12-22T01:53:33;8.60;;;4.65;;
74233;SDS011;62591;55.764;37.718;2023-12-22T01:56:06;9.00;;;4.18;;
74233;SDS011;62591;55.764;37.718;2023-12-22T01:58:40;8.82;;;5.07;;
74233;SDS011;62591;55.764;37.718;2023-12-22T02:01:21;8.25;;;4.55;;
74233;SDS011;62591;55.764;37.718;2023-12-22T02:03:52;9.95;;;4.68;;
74233;SDS011;62591;55.764;37.718;2023-12-22T02:06:26;9.32;;;4.78;;
74233;SDS011;62591;55.764;37.718;2023-12-22T02:08:59;8.30;;;4.35;;
74233;SDS011;62591;55.764;37.718;2023-12-22T02:11:31;9.35;;;4.95;;
74233;SDS011;62591;55.764;37.718;2023-12-22T02:14:02;8.07;;;4.28;;
74233;SDS011;62591;55.764;37.718;2023-12-22T02:16:37;10.15;;;5.43;;
74233;SDS011;62591;55.764;37.718;2023-12-22T02:19:17;11.88;;;4.82;;
74233;SDS011;62591;55.764;37.718;2023-12-22T02:22:01;11.00;;;4.93;;
74233;SDS011;62591;55.764;37.718;2023-12-22T02:24:38;9.45;;;5.63;;
74233;SDS011;62591;55.764;37.718;2023-12-22T02:27:15;9.82;;;5.43;;
74233;SDS011;62591;55.764;37.718;2023-12-22T02:30:03;9.10;;;4.45;;
74233;SDS011;62591;55.764;37.718;2023-12-22T02:32:43;9.30;;;5.10;;
74233;SDS011;62591;55.764;37.718;2023-12-22T02:35:17;9.32;;;5.10;;
74233;SDS011;62591;55.764;37.718;2023-12-22T02:37:50;10.20;;;4.75;;
74233;SDS011;62591;55.764;37.718;2023-12-22T02:40:25;8.90;;;4.65;;
74233;SDS011;62591;55.764;37.718;2023-12-22T02:42:57;7.82;;;4.78;;
74233;SDS011;62591;55.764;37.718;2023-12-22T02:45:26;8.93;;;4.93;;
74233;SDS011;62591;55.764;37.718;2023-12-22T02:47:59;9.50;;;4.82;;
74233;SDS011;62591;55.764;37.718;2023-12-22T02:50:29;7.93;;;4.88;;
74233;SDS011;62591;55.764;37.718;2023-12-22T02:53:00;9.50;;;4.82;;
74233;SDS011;62591;55.764;37.718;2023-12-22T02:55:31;9.15;;;4.75;;
74233;SDS011;62591;55.764;37.718;2023-12-22T02:58:00;7.93;;;4.75;;
74233;SDS011;62591;55.764;37.718;2023-12-22T03:00:31;8.32;;;4.93;;
74233;SDS011;62591;55.764;37.718;2023-12-22T03:03:01;10.77;;;5.38;;
74233;SDS011;62591;55.764;37.718;2023-12-22T03:05:33;11.85;;;5.45;;
74233;SDS011;62591;55.764;37.718;2023-12-22T03:08:02;10.80;;;5.70;;
74233;SDS011;62591;55.764;37.718;2023-12-22T03:10:37;11.32;;;5.38;;
74233;SDS011;62591;55.764;37.718;2023-12-22T03:13:09;9.23;;;5.05;;
74233;SDS011;62591;55.764;37.718;2023-12-22T03:15:38;8.48;;;5.43;;
74233;SDS011;62591;55.764;37.718;2023-12-22T03:18:10;10.40;;;5.60;;
74233;SDS011;62591;55.764;37.718;2023-12-22T03:20:42;10.70;;;6.10;;
74233;SDS011;62591;55.764;37.718;2023-12-22T03:23:11;8.35;;;4.97;;
74233;SDS011;62591;55.764;37.718;2023-12-22T03:25:45;12.23;;;5.60;;
74233;SDS011;62591;55.764;37.718;2023-12-22T03:28:14;9.13;;;5.18;;
74233;SDS011;62591;55.764;37.718;2023-12-22T03:30:46;11.00;;;5.72;;
74233;SDS011;62591;55.764;37.718;2023-12-22T03:33:15;9.70;;;5.57;;
74233;SDS011;62591;55.764;37.718;2023-12-22T03:35:52;9.73;;;5.72;;
74233;SDS011;62591;55.764;37.718;2023-12-22T03:38:23;9.70;;;5.90;;
74233;SDS011;62591;55.764;37.718;2023-12-22T03:40:53;11.00;;;6.15;;
74233;SDS011;62591;55.764;37.718;2023-12-22T03:43:25;8.75;;;5.50;;
74233;SDS011;62591;55.764;37.718;2023-12-22T03:45:56;10.30;;;6.13;;
74233;SDS011;62591;55.764;37.718;2023-12-22T03:48:26;10.88;;;5.65;;
74233;SDS011;62591;55.764;37.718;2023-12-22T03:50:55;13.18;;;6.65;;
74233;SDS011;62591;55.764;37.718;2023-12-22T03:53:23;9.07;;;5.25;;
74233;SDS011;62591;55.764;37.718;2023-12-22T03:55:59;12.23;;;5.57;;
74233;SDS011;62591;55.764;37.718;2023-12-22T03:58:31;10.60;;;6.05;;
74233;SDS011;62591;55.764;37.718;2023-12-22T04:01:00;13.00;;;5.93;;
74233;SDS011;62591;55.764;37.718;2023-12-22T04:03:29;10.73;;;5.55;;
74233;SDS011;62591;55.764;37.718;2023-12-22T04:06:05;11.75;;;6.43;;
74233;SDS011;62591;55.764;37.718;2023-12-22T04:08:37;11.30;;;5.97;;
74233;SDS011;62591;55.764;37.718;2023-12-22T04:11:10;9.35;;;5.82;;
74233;SDS011;62591;55.764;37.718;2023-12-22T04:13:40;10.98;;;6.38;;
74233;SDS011;62591;55.764;37.718;2023-12-22T04:16:12;11.65;;;6.00;;
74233;SDS011;62591;55.764;37.718;2023-12-22T04:18:43;11.55;;;6.32;;
74233;SDS011;62591;55.764;37.718;2023-12-22T04:21:14;11.85;;;5.97;;
74233;SDS011;62591;55.764;37.718;2023-12-22T04:23:45;12.02;;;6.53;;
74233;SDS011;62591;55.764;37.718;2023-12-22T04:26:17;10.50;;;5.78;;
74233;SDS011;62591;55.764;37.718;2023-12-22T04:28:50;12.07;;;6.00;;
74233;SDS011;62591;55.764;37.718;2023-12-22T04:31:19;13.57;;;6.03;;
74233;SDS011;62591;55.764;37.718;2023-12-22T04:33:50;9.35;;;5.30;;
74233;SDS011;62591;55.764;37.718;2023-12-22T04:36:19;13.65;;;6.38;;
74233;SDS011;62591;55.764;37.718;2023-12-22T04:38:49;11.10;;;6.05;;
74233;SDS011;62591;55.764;37.718;2023-12-22T04:41:21;14.70;;;5.88;;
74233;SDS011;62591;55.764;37.718;2023-12-22T04:43:50;12.35;;;5.97;;
74233;SDS011;62591;55.764;37.718;2023-12-22T04:46:20;11.32;;;6.07;;
74233;SDS011;62591;55.764;37.718;2023-12-22T04:48:50;11.27;;;5.82;;
74233;SDS011;62591;55.764;37.718;2023-12-22T04:51:19;13.32;;;6.60;;
74233;SDS011;62591;55.764;37.718;2023-12-22T04:53:58;11.40;;;6.07;;
74233;SDS011;62591;55.764;37.718;2023-12-22T04:56:37;16.40;;;6.32;;
74233;SDS011;62591;55.764;37.718;2023-12-22T04:59:07;11.27;;;6.35;;
74233;SDS011;62591;55.764;37.718;2023-12-22T05:01:36;28.00;;;13.15;;
74233;SDS011;62591;55.764;37.718;2023-12-22T05:04:06;12.52;;;6.00;;
74233;SDS011;62591;55.764;37.718;2023-12-22T05:06:38;14.93;;;7.05;;
74233;SDS011;62591;55.764;37.718;2023-12-22T05:09:11;15.75;;;8.00;;
74233;SDS011;62591;55.764;37.718;2023-12-22T05:11:48;16.92;;;7.13;;
74233;SDS011;62591;55.764;37.718;2023-12-22T05:14:22;19.02;;;9.95;;
74233;SDS011;62591;55.764;37.718;2023-12-22T05:16:50;17.10;;;8.13;;
74233;SDS011;62591;55.764;37.718;2023-12-22T05:19:22;15.93;;;7.47;;
74233;SDS011;62591;55.764;37.718;2023-12-22T05:21:52;13.60;;;6.45;;
74233;SDS011;62591;55.764;37.718;2023-12-22T05:24:23;16.92;;;7.47;;
74233;SDS011;62591;55.764;37.718;2023-12-22T05:26:54;13.57;;;7.03;;
74233;SDS011;62591;55.764;37.718;2023-12-22T05:29:22;12.63;;;6.90;;
74233;SDS011;62591;55.764;37.718;2023-12-22T05:31:52;15.45;;;8.57;;
74233;SDS011;62591;55.764;37.718;2023-12-22T05:34:25;15.85;;;8.02;;
74233;SDS011;62591;55.764;37.718;2023-12-22T05:36:56;17.75;;;8.05;;
74233;SDS011;62591;55.764;37.718;2023-12-22T05:39:27;14.00;;;7.53;;
74233;SDS011;62591;55.764;37.718;2023-12-22T05:41:57;20.40;;;9.60;;
74233;SDS011;62591;55.764;37.718;2023-12-22T05:44:32;18.55;;;9.18;;
74233;SDS011;62591;55.764;37.718;2023-12-22T05:47:02;14.73;;;8.05;;
74233;SDS011;62591;55.764;37.718;2023-12-22T05:49:33;17.50;;;8.73;;
74233;SDS011;62591;55.764;37.718;2023-12-22T05:52:03;18.13;;;8.50;;
74233;SDS011;62591;55.764;37.718;2023-12-22T05:54:32;16.95;;;8.45;;
74233;SDS011;62591;55.764;37.718;2023-12-22T05:57:04;18.05;;;9.20;;
74233;SDS011;62591;55.764;37.718;2023-12-22T05:59:33;17.08;;;8.95;;
74233;SDS011;62591;55.764;37.718;2023-12-22T06:02:10;14.70;;;8.50;;
74233;SDS011;62591;55.764;37.718;2023-12-22T06:04:42;19.48;;;9.07;;
74233;SDS011;62591;55.764;37.718;2023-12-22T06:07:13;15.95;;;8.75;;
74233;SDS011;62591;55.764;37.718;2023-12-22T06:09:43;17.63;;;9.52;;
74233;SDS011;62591;55.764;37.718;2023-12-22T06:12:22;15.65;;;8.90;;
74233;SDS011;62591;55.764;37.718;2023-12-22T06:19:09;17.55;;;8.77;;
74233;SDS011;62591;55.764;37.718;2023-12-22T06:21:43;17.83;;;8.35;;
74233;SDS011;62591;55.764;37.718;2023-12-22T06:24:25;14.98;;;8.07;;
74233;SDS011;62591;55.764;37.718;2023-12-22T06:26:57;15.70;;;7.80;;
74233;SDS011;62591;55.764;37.718;2023-12-22T06:29:31;14.60;;;8.30;;
74233;SDS011;62591;55.764;37.718;2023-12-22T06:31:59;13.55;;;7.38;;
74233;SDS011;62591;55.764;37.718;2023-12-22T06:34:30;16.38;;;7.85;;
74233;SDS011;62591;55.764;37.718;2023-12-22T06:37:02;14.43;;;7.60;;
74233;SDS011;62591;55.764;37.718;2023-12-22T06:39:36;15.30;;;8.25;;
74233;SDS011;62591;55.764;37.718;2023-12-22T06:42:07;16.30;;;8.15;;
74233;SDS011;62591;55.764;37.718;2023-12-22T06:44:43;16.02;;;8.75;;
74233;SDS011;62591;55.764;37.718;2023-12-22T06:47:12;15.63;;;6.97;;
74233;SDS011;62591;55.764;37.718;2023-12-22T06:49:41;13.15;;;6.97;;
74233;SDS011;62591;55.764;37.718;2023-12-22T06:52:11;11.27;;;6.90;;
74233;SDS011;62591;55.764;37.718;2023-12-22T06:54:47;12.80;;;7.28;;
74233;SDS011;62591;55.764;37.718;2023-12-22T06:57:18;18.23;;;9.80;;
74233;SDS011;62591;55.764;37.718;2023-12-22T06:59:52;17.85;;;10.82;;
74233;SDS011;62591;55.764;37.718;2023-12-22T07:02:21;14.15;;;7.68;;
74233;SDS011;62591;55.764;37.718;2023-12-22T07:08:08;14.63;;;7.60;;
74233;SDS011;62591;55.764;37.718;2023-12-22T07:10:37;12.18;;;6.35;;
74233;SDS011;62591;55.764;37.718;2023-12-22T07:13:07;14.20;;;7.13;;
74233;SDS011;62591;55.764;37.718;2023-12-22T07:15:38;14.70;;;7.25;;
74233;SDS011;62591;55.764;37.718;2023-12-22T07:18:15;16.33;;;7.80;;
74233;SDS011;62591;55.764;37.718;2023-12-22T07:20:53;14.70;;;7.20;;
74233;SDS011;62591;55.764;37.718;2023-12-22T07:23:21;13.18;;;7.40;;
74233;SDS011;62591;55.764;37.718;2023-12-22T07:25:51;13.85;;;7.90;;
74233;SDS011;62591;55.764;37.718;2023-12-22T07:28:22;14.13;;;8.18;;
74233;SDS011;62591;55.764;37.718;2023-12-22T07:30:53;11.50;;;7.60;;
74233;SDS011;62591;55.764;37.718;2023-12-22T07:33:28;14.68;;;7.40;;
74233;SDS011;62591;55.764;37.718;2023-12-22T07:36:00;17.75;;;8.23;;
74233;SDS011;62591;55.764;37.718;2023-12-22T07:38:34;13.15;;;7.10;;
74233;SDS011;62591;55.764;37.718;2023-12-22T07:41:06;15.02;;;7.20;;
74233;SDS011;62591;55.764;37.718;2023-12-22T07:43:39;14.65;;;7.53;;
74233;SDS011;62591;55.764;37.718;2023-12-22T07:46:18;15.00;;;8.07;;
74233;SDS011;62591;55.764;37.718;2023-12-22T07:48:50;12.63;;;6.70;;
74233;SDS011;62591;55.764;37.718;2023-12-22T07:51:19;11.50;;;6.38;;
74233;SDS011;62591;55.764;37.718;2023-12-22T07:53:52;11.90;;;6.63;;
74233;SDS011;62591;55.764;37.718;2023-12-22T07:56:25;14.85;;;6.68;;
74233;SDS011;62591;55.764;37.718;2023-12-22T07:58:54;12.77;;;6.35;;
74233;SDS011;62591;55.764;37.718;2023-12-22T08:01:43;12.32;;;6.35;;
74233;SDS011;62591;55.764;37.718;2023-12-22T08:04:15;16.83;;;7.88;;
74233;SDS011;62591;55.764;37.718;2023-12-22T08:06:44;12.02;;;5.63;;
74233;SDS011;62591;55.764;37.718;2023-12-22T08:09:16;12.60;;;5.88;;
74233;SDS011;62591;55.764;37.718;2023-12-22T08:11:50;15.40;;;7.47;;
74233;SDS011;62591;55.764;37.718;2023-12-22T08:14:30;13.05;;;7.05;;
74233;SDS011;62591;55.764;37.718;2023-12-22T08:17:04;12.27;;;6.47;;
74233;SDS011;62591;55.764;37.718;2023-12-22T08:22:08;15.30;;;7.35;;
74233;SDS011;62591;55.764;37.718;2023-12-22T08:24:38;16.27;;;7.07;;
74233;SDS011;62591;55.764;37.718;2023-12-22T08:27:07;14.05;;;7.00;;
74233;SDS011;62591;55.764;37.718;2023-12-22T08:29:37;11.02;;;6.72;;
74233;SDS011;62591;55.764;37.718;2023-12-22T08:32:08;18.85;;;8.20;;
74233;SDS011;62591;55.764;37.718;2023-12-22T08:34:38;15.25;;;7.97;;
74233;SDS011;62591;55.764;37.718;2023-12-22T08:37:07;15.68;;;8.15;;
74233;SDS011;62591;55.764;37.718;2023-12-22T08:39:35;12.80;;;7.45;;
74233;SDS011;62591;55.764;37.718;2023-12-22T08:42:05;13.75;;;7.78;;
74233;SDS011;62591;55.764;37.718;2023-12-22T08:44:35;14.82;;;8.15;;
74233;SDS011;62591;55.764;37.718;2023-12-22T08:47:05;15.27;;;8.27;;
74233;SDS011;62591;55.764;37.718;2023-12-22T08:49:38;18.63;;;9.00;;
74233;SDS011;62591;55.764;37.718;2023-12-22T08:52:07;19.88;;;10.40;;
74233;SDS011;62591;55.764;37.718;2023-12-22T08:54:38;18.13;;;9.90;;
74233;SDS011;62591;55.764;37.718;2023-12-22T08:57:06;21.65;;;10.18;;
74233;SDS011;62591;55.764;37.718;2023-12-22T08:59:37;23.63;;;13.30;;
74233;SDS011;62591;55.764;37.718;2023-12-22T09:02:06;22.85;;;10.88;;
74233;SDS011;62591;55.764;37.718;2023-12-22T09:04:37;20.45;;;10.32;;
74233;SDS011;62591;55.764;37.718;2023-12-22T09:07:08;20.45;;;9.98;;
74233;SDS011;62591;55.764;37.718;2023-12-22T09:09:37;17.73;;;10.00;;
74233;SDS011;62591;55.764;37.718;2023-12-22T09:12:08;20.20;;;10.75;;
74233;SDS011;62591;55.764;37.718;2023-12-22T09:14:37;19.77;;;9.60;;
74233;SDS011;62591;55.764;37.718;2023-12-22T09:17:06;18.38;;;10.07;;
74233;SDS011;62591;55.764;37.718;2023-12-22T09:19:35;15.65;;;9.00;;
74233;SDS011;62591;55.764;37.718;2023-12-22T09:22:06;22.40;;;10.13;;
74233;SDS011;62591;55.764;37.718;2023-12-22T09:24:34;23.85;;;10.63;;
74233;SDS011;62591;55.764;37.718;2023-12-22T09:27:03;18.88;;;10.05;;
74233;SDS011;62591;55.764;37.718;2023-12-22T09:29:32;15.35;;;9.10;;
74233;SDS011;62591;55.764;37.718;2023-12-22T09:32:02;17.88;;;9.88;;
74233;SDS011;62591;55.764;37.718;2023-12-22T09:34:33;20.35;;;10.05;;
74233;SDS011;62591;55.764;37.718;2023-12-22T09:37:15;16.70;;;8.82;;
74233;SDS011;62591;55.764;37.718;2023-12-22T09:39:47;19.48;;;9.63;;
74233;SDS011;62591;55.764;37.718;2023-12-22T09:42:18;17.40;;;9.60;;
74233;SDS011;62591;55.764;37.718;2023-12-22T09:44:49;16.38;;;9.10;;
74233;SDS011;62591;55.764;37.718;2023-12-22T09:47:24;23.30;;;8.52;;
74233;SDS011;62591;55.764;37.718;2023-12-22T09:49:59;19.13;;;9.35;;
74233;SDS011;62591;55.764;37.718;2023-12-22T09:52:30;16.23;;;8.82;;
74233;SDS011;62591;55.764;37.718;2023-12-22T09:55:03;19.15;;;9.43;;
74233;SDS011;62591;55.764;37.718;2023-12-22T09:57:37;14.43;;;7.80;;
74233;SDS011;62591;55.764;37.718;2023-12-22T10:00:07;16.15;;;8.40;;
74233;SDS011;62591;55.764;37.718;2023-12-22T10:02:39;14.65;;;8.20;;
74233;SDS011;62591;55.764;37.718;2023-12-22T10:05:10;15.25;;;7.85;;
74233;SDS011;62591;55.764;37.718;2023-12-22T10:07:42;12.70;;;7.05;;
74233;SDS011;62591;55.764;37.718;2023-12-22T10:10:13;17.38;;;8.35;;
74233;SDS011;62591;55.764;37.718;2023-12-22T10:15:17;14.27;;;8.10;;
74233;SDS011;62591;55.764;37.718;2023-12-22T10:17:51;18.55;;;8.38;;
74233;SDS011;62591;55.764;37.718;2023-12-22T10:20:20;13.75;;;7.18;;
74233;SDS011;62591;55.764;37.718;2023-12-22T10:22:51;13.77;;;7.82;;
74233;SDS011;62591;55.764;37.718;2023-12-22T10:25:24;12.52;;;7.47;;
74233;SDS011;62591;55.764;37.718;2023-12-22T10:27:56;13.85;;;7.07;;
74233;SDS011;62591;55.764;37.718;2023-12-22T10:30:26;11.95;;;7.57;;
74233;SDS011;62591;55.764;37.718;2023-12-22T10:32:59;12.38;;;6.78;;
74233;SDS011;62591;55.764;37.718;2023-12-22T10:35:31;27.17;;;15.35;;
74233;SDS011;62591;55.764;37.718;2023-12-22T10:38:03;14.85;;;7.15;;
74233;SDS011;62591;55.764;37.718;2023-12-22T10:40:33;11.93;;;6.68;;
74233;SDS011;62591;55.764;37.718;2023-12-22T10:43:03;12.55;;;6.85;;
74233;SDS011;62591;55.764;37.718;2023-12-22T10:45:32;12.48;;;6.32;;
74233;SDS011;62591;55.764;37.718;2023-12-22T10:48:02;16.15;;;7.28;;
74233;SDS011;62591;55.764;37.718;2023-12-22T10:50:31;12.15;;;6.47;;
74233;SDS011;62591;55.764;37.718;2023-12-22T10:53:00;13.70;;;6.43;;
74233;SDS011;62591;55.764;37.718;2023-12-22T10:55:34;12.10;;;6.85;;
74233;SDS011;62591;55.764;37.718;2023-12-22T10:58:03;14.45;;;7.10;;
74233;SDS011;62591;55.764;37.718;2023-12-22T11:00:33;12.43;;;6.53;;
74233;SDS011;62591;55.764;37.718;2023-12-22T11:03:06;11.57;;;6.35;;
74233;SDS011;62591;55.764;37.718;2023-12-22T11:05:41;11.35;;;5.95;;
74233;SDS011;62591;55.764;37.718;2023-12-22T11:08:17;13.68;;;6.72;;
74233;SDS011;62591;55.764;37.718;2023-12-22T11:10:49;9.80;;;5.68;;
74233;SDS011;62591;55.764;37.718;2023-12-22T11:13:26;14.32;;;7.13;;
74233;SDS011;62591;55.764;37.718;2023-12-22T11:15:57;10.93;;;5.88;;
74233;SDS011;62591;55.764;37.718;2023-12-22T11:18:27;9.60;;;5.80;;
74233;SDS011;62591;55.764;37.718;2023-12-22T11:20:58;12.70;;;6.90;;
74233;SDS011;62591;55.764;37.718;2023-12-22T11:23:30;12.15;;;7.13;;
74233;SDS011;62591;55.764;37.718;2023-12-22T11:26:04;9.68;;;5.82;;
74233;SDS011;62591;55.764;37.718;2023-12-22T11:28:38;11.05;;;6.18;;
74233;SDS011;62591;55.764;37.718;2023-12-22T11:31:10;12.05;;;6.50;;
74233;SDS011;62591;55.764;37.718;2023-12-22T11:33:40;10.77;;;6.13;;
74233;SDS011;62591;55.764;37.718;2023-12-22T11:36:30;10.10;;;5.65;;
74233;SDS011;62591;55.764;37.718;2023-12-22T11:39:02;10.55;;;5.50;;
74233;SDS011;62591;55.764;37.718;2023-12-22T11:41:33;9.57;;;5.68;;
74233;SDS011;62591;55.764;37.718;2023-12-22T11:44:05;14.57;;;7.68;;
74233;SDS011;62591;55.764;37.718;2023-12-22T11:46:34;12.05;;;5.95;;
74233;SDS011;62591;55.764;37.718;2023-12-22T11:49:04;12.82;;;6.32;;
74233;SDS011;62591;55.764;37.718;2023-12-22T11:51:40;9.38;;;5.55;;
74233;SDS011;62591;55.764;37.718;2023-12-22T12:00:00;24.08;;;12.70;;
74233;SDS011;62591;55.764;37.718;2023-12-22T12:02:39;11.95;;;5.32;;
74233;SDS011;62591;55.764;37.718;2023-12-22T12:05:09;9.57;;;5.80;;
74233;SDS011;62591;55.764;37.718;2023-12-22T12:07:42;10.48;;;5.53;;
74233;SDS011;62591;55.764;37.718;2023-12-22T12:13:23;10.10;;;5.93;;
74233;SDS011;62591;55.764;37.718;2023-12-22T12:15:58;10.65;;;4.82;;
74233;SDS011;62591;55.764;37.718;2023-12-22T12:18:28;10.07;;;5.53;;
74233;SDS011;62591;55.764;37.718;2023-12-22T12:20:57;8.90;;;5.10;;
74233;SDS011;62591;55.764;37.718;2023-12-22T12:23:27;15.13;;;7.82;;
74233;SDS011;62591;55.764;37.718;2023-12-22T12:25:58;10.45;;;5.80;;
74233;SDS011;62591;55.764;37.718;2023-12-22T12:28:28;11.15;;;5.68;;
74233;SDS011;62591;55.764;37.718;2023-12-22T12:30:58;7.40;;;4.07;;
74233;SDS011;62591;55.764;37.718;2023-12-22T12:33:30;11.18;;;5.28;;
74233;SDS011;62591;55.764;37.718;2023-12-22T12:36:01;10.07;;;5.20;;
74233;SDS011;62591;55.764;37.718;2023-12-22T12:38:43;9.20;;;5.13;;
74233;SDS011;62591;55.764;37.718;2023-12-22T12:41:28;10.38;;;6.05;;
74233;SDS011;62591;55.764;37.718;2023-12-22T12:44:03;8.80;;;5.32;;
74233;SDS011;62591;55.764;37.718;2023-12-22T12:46:34;10.60;;;5.47;;
74233;SDS011;62591;55.764;37.718;2023-12-22T12:49:03;10.30;;;5.78;;
74233;SDS011;62591;55.764;37.718;2023-12-22T12:51:36;9.30;;;4.93;;
74233;SDS011;62591;55.764;37.718;2023-12-22T12:54:06;9.45;;;5.13;;
74233;SDS011;62591;55.764;37.718;2023-12-22T12:56:40;10.23;;;5.93;;
74233;SDS011;62591;55.764;37.718;2023-12-22T12:59:09;10.35;;;5.45;;
74233;SDS011;62591;55.764;37.718;2023-12-22T13:01:41;10.25;;;5.75;;
74233;SDS011;62591;55.764;37.718;2023-12-22T13:04:11;10.65;;;6.50;;
74233;SDS011;62591;55.764;37.718;2023-12-22T13:09:13;10.35;;;5.68;;
74233;SDS011;62591;55.764;37.718;2023-12-22T13:11:44;9.60;;;5.25;;
74233;SDS011;62591;55.764;37.718;2023-12-22T13:14:21;9.98;;;5.65;;
74233;SDS011;62591;55.764;37.718;2023-12-22T13:16:52;13.25;;;7.32;;
74233;SDS011;62591;55.764;37.718;2023-12-22T13:19:25;11.30;;;6.05;;
74233;SDS011;62591;55.764;37.718;2023-12-22T13:21:55;13.02;;;7.80;;
74233;SDS011;62591;55.764;37.718;2023-12-22T13:24:24;8.98;;;5.82;;
74233;SDS011;62591;55.764;37.718;2023-12-22T13:27:01;12.68;;;5.97;;
74233;SDS011;62591;55.764;37.718;2023-12-22T13:29:42;11.63;;;5.93;;
74233;SDS011;62591;55.764;37.718;2023-12-22T13:32:16;10.32;;;5.45;;
74233;SDS011;62591;55.764;37.718;2023-12-22T13:34:50;11.23;;;5.95;;
74233;SDS011;62591;55.764;37.718;2023-12-22T13:37:21;12.07;;;5.97;;
74233;SDS011;62591;55.764;37.718;2023-12-22T13:39:53;10.00;;;5.85;;
74233;SDS011;62591;55.764;37.718;2023-12-22T13:42:25;10.23;;;5.63;;
74233;SDS011;62591;55.764;37.718;2023-12-22T13:44:55;11.77;;;5.85;;
74233;SDS011;62591;55.764;37.718;2023-12-22T13:47:24;10.65;;;5.43;;
74233;SDS011;62591;55.764;37.718;2023-12-22T13:49:55;10.80;;;5.68;;
74233;SDS011;62591;55.764;37.718;2023-12-22T13:52:25;11.52;;;5.50;;
74233;SDS011;62591;55.764;37.718;2023-12-22T13:54:55;9.65;;;5.60;;
74233;SDS011;62591;55.764;37.718;2023-12-22T13:57:32;10.73;;;6.05;;
74233;SDS011;62591;55.764;37.718;2023-12-22T14:00:03;10.57;;;5.55;;
74233;SDS011;62591;55.764;37.718;2023-12-22T14:03:00;13.45;;;5.68;;
74233;SDS011;62591;55.764;37.718;2023-12-22T14:05:29;21.90;;;12.10;;
74233;SDS011;62591;55.764;37.718;2023-12-22T14:08:01;13.60;;;6.53;;
74233;SDS011;62591;55.764;37.718;2023-12-22T14:10:31;13.48;;;6.30;;
74233;SDS011;62591;55.764;37.718;2023-12-22T14:13:01;12.13;;;7.22;;
74233;SDS011;62591;55.764;37.718;2023-12-22T14:15:30;16.33;;;8.52;;
74233;SDS011;62591;55.764;37.718;2023-12-22T14:18:10;16.70;;;8.05;;
74233;SDS011;62591;55.764;37.718;2023-12-22T14:20:39;15.50;;;7.40;;
74233;SDS011;62591;55.764;37.718;2023-12-22T14:23:08;15.52;;;8.05;;
74233;SDS011;62591;55.764;37.718;2023-12-22T14:25:43;16.33;;;7.88;;
74233;SDS011;62591;55.764;37.718;2023-12-22T14:28:14;14.55;;;7.95;;
74233;SDS011;62591;55.764;37.718;2023-12-22T14:30:44;15.45;;;8.38;;
74233;SDS011;62591;55.764;37.718;2023-12-22T14:33:13;17.23;;;8.82;;
74233;SDS011;62591;55.764;37.718;2023-12-22T14:35:43;15.70;;;8.25;;
74233;SDS011;62591;55.764;37.718;2023-12-22T14:38:11;19.45;;;8.90;;
74233;SDS011;62591;55.764;37.718;2023-12-22T14:40:40;19.25;;;8.95;;
74233;SDS011;62591;55.764;37.718;2023-12-22T14:43:09;16.27;;;8.07;;
74233;SDS011;62591;55.764;37.718;2023-12-22T14:45:40;15.02;;;7.55;;
74233;SDS011;62591;55.764;37.718;2023-12-22T14:48:09;15.50;;;8.13;;
74233;SDS011;62591;55.764;37.718;2023-12-22T14:50:38;16.52;;;8.65;;
74233;SDS011;62591;55.764;37.718;2023-12-22T14:53:10;15.57;;;8.52;;
74233;SDS011;62591;55.764;37.718;2023-12-22T14:55:39;14.48;;;7.78;;
74233;SDS011;62591;55.764;37.718;2023-12-22T14:58:10;13.75;;;7.35;;
74233;SDS011;62591;55.764;37.718;2023-12-22T15:00:42;13.73;;;7.57;;
74233;SDS011;62591;55.764;37.718;2023-12-22T15:03:11;13.75;;;7.55;;
74233;SDS011;62591;55.764;37.718;2023-12-22T15:05:40;15.95;;;7.80;;
74233;SDS011;62591;55.764;37.718;2023-12-22T15:08:09;14.75;;;7.55;;
74233;SDS011;62591;55.764;37.718;2023-12-22T15:10:38;15.80;;;7.47;;
74233;SDS011;62591;55.764;37.718;2023-12-22T15:13:06;15.50;;;7.82;;
74233;SDS011;62591;55.764;37.718;2023-12-22T15:15:38;14.45;;;7.40;;